Latest Weather Observations for Maroochydore

IDQ60801

Issued at 2:05 pm EST Saturday 30 August 2014 (issued every 30 minutes, with the page automatically refreshed every 10 minutes)

About weather observations | Map of weather stations | Latest weather observations for QLD | Other Formats
Station Details ID: 040861 Name: SUNSHINE COAST AIRPORT Lat: -26.60 Lon: 153.09 Height: 3.3 m
Data from the previous 72 hours. | See also: Recent months at Maroochydore
Date/Time
EST
Temp
°C
App
Temp
°C
Dew
Point
Rel
Hum
%
Delta-T
°C
Wind Press
QNH
hPa
Press
MSL
hPa
Rain
since 9 am
mm
Dir
 
Spd
km/h
Gust
km/h
Spd
kts
Gust
kts
30/02:00pm 21.3 17.5 9.9 48 6.1 ESE 20 26 11 14 1016.7 - 0.0
30/01:30pm 21.3 17.3 9.2 46 6.4 ESE 20 26 11 14 1016.9 - 0.0
30/01:00pm 21.0 18.4 11.9 56 5.1 E 17 20 9 11 1016.9 - 0.0
30/12:30pm 20.5 17.4 12.2 59 4.6 E 20 24 11 13 1017.4 - 0.0
30/12:00pm 20.7 18.0 11.6 56 5.0 E 17 20 9 11 1018.0 1018.0 0.0
30/11:30am 20.6 17.6 12.1 58 4.8 E 19 20 10 11 1018.5 - 0.0
30/11:00am 20.5 17.4 11.7 57 4.9 E 19 20 10 11 1018.9 - 0.0
30/10:30am 21.7 20.3 9.6 46 6.5 SSE 7 15 4 8 1019.3 - 0.0
30/10:00am 20.8 18.2 6.0 38 7.4 WSW 9 17 5 9 1019.5 - 0.0
30/09:30am 19.8 18.1 9.7 52 5.4 W 9 13 5 7 1019.9 - 0.0
30/09:00am 19.0 17.8 12.7 67 3.5 WNW 11 15 6 8 1020.0 1020.0 0.0
30/08:30am 16.6 15.1 13.1 80 2.0 WNW 13 15 7 8 1020.0 - 0.0
30/08:00am 14.0 13.0 12.2 89 1.0 WNW 9 13 5 7 1020.3 - 0.0
30/07:30am 12.1 10.4 11.2 94 0.5 W 11 13 6 7 1020.3 - 0.0
30/07:00am 10.5 8.4 9.9 96 0.3 W 11 13 6 7 1020.2 - 0.0
30/06:30am 8.8 5.9 8.2 96 0.3 WNW 13 15 7 8 1020.0 - 0.0
30/06:00am 8.0 5.6 7.2 95 0.4 W 9 11 5 6 1019.8 1019.8 0.0
30/05:30am 8.0 6.2 7.2 95 0.4 W 6 7 3 4 1019.5 - 0.0
30/05:00am 8.1 5.8 7.3 95 0.4 W 9 9 5 5 1019.2 - 0.0
30/04:30am 9.0 7.3 8.4 96 0.3 W 7 9 4 5 1019.1 - 0.0
30/04:00am 8.7 6.5 7.9 95 0.4 WSW 9 9 5 5 1019.0 - 0.0
30/03:30am 8.8 6.6 8.0 95 0.4 W 9 11 5 6 1018.9 - 0.0
30/03:00am 8.9 6.8 8.1 95 0.4 W 9 9 5 5 1019.0 1019.0 0.0
30/02:30am 9.4 7.4 8.6 95 0.4 W 9 11 5 6 1019.4 - 0.0
30/02:00am 9.5 7.5 8.7 95 0.4 W 9 9 5 5 1019.6 - 0.0
30/01:30am 9.8 7.9 9.0 95 0.4 W 9 11 5 6 1019.7 - 0.0
30/01:00am 9.7 7.4 8.9 95 0.4 W 11 13 6 7 1020.0 - 0.0
30/12:30am 10.1 7.9 9.3 95 0.4 W 11 11 6 6 1020.2 - 0.0
30/12:00am 9.9 8.4 9.0 94 0.4 W 7 9 4 5 1020.3 1020.3 0.0
 
Date/Time
EST
Temp
°C
App
Temp
°C
Dew
Point
Rel
Hum
%
Delta-T
°C
Wind Press
QNH
hPa
Press
MSL
hPa
Rain
since 9 am
mm
Dir
 
Spd
km/h
Gust
km/h
Spd
kts
Gust
kts
29/11:30pm 10.0 8.7 9.1 94 0.4 W 6 7 3 4 1020.4 - 0.0
29/11:00pm 10.3 8.9 9.4 94 0.4 W 7 9 4 5 1020.5 - 0.0
29/10:30pm 10.5 8.4 9.6 94 0.5 WNW 11 11 6 6 1020.6 - 0.0
29/10:00pm 10.4 8.9 9.2 92 0.6 WSW 7 9 4 5 1020.6 - 0.0
29/09:30pm 11.1 10.0 9.9 92 0.6 SW 6 7 3 4 1020.5 - 0.0
29/09:00pm 11.4 11.0 9.7 89 0.9 W 2 6 1 3 1020.7 1020.7 0.0
29/08:30pm 11.9 10.8 10.1 89 0.9 WNW 6 7 3 4 1020.8 - 0.0
29/08:00pm 12.7 11.8 10.6 87 1.1 W 6 7 3 4 1020.7 - 0.0
29/07:30pm 13.3 12.2 10.7 84 1.4 SSW 7 13 4 7 1020.4 - 0.0
29/07:00pm 15.6 13.8 9.5 67 3.2 SE 9 15 5 8 1020.3 - 0.0
29/06:30pm 17.0 14.7 10.4 65 3.5 SE 13 17 7 9 1020.1 - 0.0
29/06:00pm 17.7 15.5 10.8 64 3.7 ESE 13 15 7 8 1019.9 1019.9 0.0
29/05:30pm 17.9 15.7 10.8 63 3.8 E 13 19 7 10 1019.7 - 0.0
29/05:00pm 18.4 16.3 11.0 62 4.0 ESE 13 20 7 11 1019.4 - 0.0
29/04:30pm 19.1 16.6 10.9 59 4.5 E 15 19 8 10 1019.4 - 0.0
29/04:00pm 19.4 16.9 10.9 58 4.6 E 15 20 8 11 1019.2 - 0.0
29/03:30pm 19.5 16.3 10.0 54 5.1 E 17 22 9 12 1019.3 - 0.0
29/03:00pm 20.2 17.1 10.3 53 5.3 ESE 17 22 9 12 1019.4 1019.4 0.0
29/02:30pm 20.4 16.9 10.2 52 5.5 ESE 19 24 10 13 1019.5 - 0.0
29/02:00pm 20.1 15.8 9.4 50 5.7 ESE 22 28 12 15 1019.7 - 0.0
29/01:30pm 20.7 16.5 9.6 49 5.9 ESE 22 30 12 16 1020.1 - 0.0
29/01:00pm 20.7 16.2 10.2 51 5.7 SE 24 32 13 17 1020.6 - 0.0
29/12:30pm 20.5 15.9 9.7 50 5.8 SE 24 30 13 16 1021.0 - 0.0
29/12:00pm 20.1 15.1 9.4 50 5.7 SE 26 35 14 19 1021.4 1021.4 0.0
29/11:30am 20.8 16.9 10.9 53 5.4 SE 22 32 12 17 1021.8 - 0.0
29/11:00am 20.3 15.0 9.8 51 5.6 SE 28 35 15 19 1022.0 - 0.0
29/10:30am 20.6 16.4 9.8 50 5.8 S 22 33 12 18 1022.5 - 0.0
29/10:00am 19.7 14.9 8.7 49 5.7 S 24 35 13 19 1022.7 - 0.0
29/09:30am 19.1 14.2 8.4 50 5.5 S 24 35 13 19 1022.8 - 0.0
29/09:00am 18.3 13.0 8.3 52 5.1 S 26 35 14 19 1022.9 1022.9 0.2
29/08:30am 17.8 13.8 8.9 56 4.6 S 20 33 11 18 1022.9 - 0.2
29/08:00am 16.5 11.9 8.0 57 4.3 S 22 33 12 18 1022.9 - 0.2
29/07:30am 15.7 12.9 8.4 62 3.7 SSW 13 20 7 11 1022.4 - 0.2
29/07:00am 13.5 11.0 8.4 71 2.5 SW 11 13 6 7 1022.1 - 0.2
29/06:30am 12.0 9.4 7.9 76 2.0 SW 11 15 6 8 1021.8 - 0.2
29/06:00am 12.0 9.1 8.1 77 1.9 SSW 13 17 7 9 1021.6 1021.6 0.2
29/05:30am 11.9 9.0 8.0 77 1.9 SW 13 17 7 9 1021.5 - 0.2
29/05:00am 11.7 9.2 8.0 78 1.8 SW 11 13 6 7 1021.2 - 0.2
29/04:30am 11.8 8.9 8.1 78 1.8 SW 13 15 7 8 1021.0 - 0.2
29/04:00am 12.3 9.8 8.0 75 2.1 SW 11 17 6 9 1020.9 - 0.2
29/03:30am 14.0 10.8 8.4 69 2.8 SSW 15 20 8 11 1020.8 - 0.2
29/03:00am 13.7 10.5 8.5 71 2.6 SSW 15 19 8 10 1020.7 1020.7 0.2
29/02:30am 14.1 11.0 8.7 70 2.7 SSW 15 24 8 13 1020.8 - 0.2
29/02:00am 13.1 11.0 8.4 73 2.3 SW 9 13 5 7 1020.6 - 0.2
29/01:30am 14.4 11.7 9.0 70 2.7 SSW 13 17 7 9 1020.9 - 0.2
29/01:00am 14.8 11.4 9.0 68 3.0 SSW 17 24 9 13 1020.9 - 0.2
29/12:30am 14.8 11.1 9.4 70 2.8 S 19 26 10 14 1020.9 - 0.2
29/12:00am 14.9 11.6 9.7 71 2.7 SSW 17 22 9 12 1021.2 1021.2 0.2
 
Date/Time
EST
Temp
°C
App
Temp
°C
Dew
Point
Rel
Hum
%
Delta-T
°C
Wind Press
QNH
hPa
Press
MSL
hPa
Rain
since 9 am
mm
Dir
 
Spd
km/h
Gust
km/h
Spd
kts
Gust
kts
28/11:30pm 15.1 11.4 10.1 72 2.6 S 20 24 11 13 1021.4 - 0.2
28/11:00pm 15.3 11.6 10.1 71 2.7 S 20 24 11 13 1021.5 - 0.2
28/10:30pm 15.8 12.1 10.3 70 2.9 S 20 30 11 16 1021.3 - 0.2
28/10:00pm 15.2 12.1 10.2 72 2.6 S 17 24 9 13 1021.4 - 0.2
28/09:30pm 15.7 12.1 10.0 69 3.0 S 19 26 10 14 1021.5 - 0.2
28/09:00pm 16.2 12.2 10.3 68 3.1 S 22 30 12 16 1021.3 1021.3 0.2
28/08:30pm 15.8 13.5 11.6 76 2.3 S 15 20 8 11 1021.2 - 0.2
28/08:00pm 16.8 13.8 11.9 73 2.7 S 19 24 10 13 1020.9 - 0.2
28/07:30pm 17.5 14.8 12.8 74 2.6 S 19 26 10 14 1020.5 - 0.2
28/07:00pm 17.7 14.7 12.6 72 2.8 S 20 26 11 14 1020.1 - 0.2
28/06:30pm 18.1 15.2 13.0 72 2.9 S 20 30 11 16 1019.7 - 0.2
28/06:00pm 18.2 15.2 12.6 70 3.1 S 20 28 11 15 1019.2 1019.2 0.2
28/05:30pm 18.7 15.1 12.0 65 3.7 S 22 30 12 16 1018.8 - 0.2
28/05:00pm 19.6 15.9 10.0 54 5.1 S 20 30 11 16 1018.4 - 0.2
28/04:30pm 20.3 15.0 9.8 51 5.6 SSE 28 37 15 20 1018.0 - 0.2
28/04:00pm 20.9 16.0 9.8 49 6.0 SSE 26 35 14 19 1017.5 - 0.2
28/03:49pm 20.9 14.9 10.1 50 5.8 SSE 32 50 17 27 1017.2 - 0.2
28/03:30pm 20.9 15.0 10.4 51 5.7 SSE 32 46 17 25 1016.8 - 0.2
28/03:19pm 20.9 14.1 10.7 52 5.6 SSE 37 56 20 30 1016.7 - 0.0
28/03:00pm 20.9 14.5 12.1 57 4.9 SSE 37 52 20 28 1016.7 1016.7 0.0
28/02:38pm 21.9 16.4 13.5 59 4.8 SSE 35 54 19 29 1016.5 - 0.0
28/02:30pm 21.0 14.7 12.2 57 4.9 SSE 37 54 20 29 1016.4 - 0.0
28/02:08pm 21.4 16.0 12.3 56 5.1 SSE 32 52 17 28 1016.2 - 0.0
28/02:00pm 21.9 16.7 12.7 56 5.2 SSE 32 44 17 24 1016.4 - 0.0
28/01:50pm 21.5 16.1 12.1 55 5.3 SSE 32 50 17 27 1016.3 - 0.0
28/01:30pm 21.4 16.2 11.7 54 5.4 SSE 30 44 16 24 1016.2 - 0.0
28/01:02pm 21.7 16.1 11.4 52 5.7 S 32 50 17 27 1016.2 - 0.0
28/01:00pm 21.9 17.0 12.5 55 5.3 S 30 44 16 24 1016.2 - 0.0
28/12:41pm 21.2 16.1 11.8 55 5.2 S 30 48 16 26 1016.1 - 0.0
28/12:30pm 20.5 15.3 11.7 57 4.9 S 30 39 16 21 1016.3 - 0.0
28/12:02pm 21.1 14.9 11.4 54 5.4 S 35 54 19 29 1015.8 - 0.0
28/12:00pm 21.5 15.0 11.8 54 5.4 S 37 54 20 29 1015.9 1015.9 0.0
28/11:30am 21.4 14.6 12.0 55 5.3 S 39 59 21 32 1015.9 - 0.0
28/11:28am 21.2 14.7 11.8 55 5.2 S 37 59 20 32 1016.1 - 0.0
28/11:00am 21.3 15.1 12.7 58 4.9 S 37 50 20 27 1016.0 - 0.0
28/10:32am 20.1 14.0 11.6 58 4.7 S 35 54 19 29 1015.9 - 0.0
28/10:30am 20.0 14.3 11.2 57 4.8 S 32 48 17 26 1016.0 - 0.0
28/10:03am 19.5 14.3 11.5 60 4.4 S 30 48 16 26 1015.9 - 0.0
28/10:00am 19.4 14.6 11.7 61 4.2 S 28 35 15 19 1015.9 - 0.0
28/09:30am 18.8 14.1 11.9 64 3.8 SSW 28 46 15 25 1015.7 - 0.0
28/09:26am 18.9 14.2 11.9 64 3.9 SSW 28 46 15 25 1015.6 - 0.0
28/09:00am 18.3 14.8 12.1 67 3.4 SW 22 37 12 20 1015.5 1015.5 3.8
28/08:30am 17.0 14.1 12.3 74 2.6 SW 19 30 10 16 1015.1 - 3.8
28/08:00am 15.6 12.1 12.2 80 1.9 SW 22 30 12 16 1015.0 - 3.8
28/07:30am 15.2 11.6 11.8 80 1.8 SW 22 35 12 19 1015.0 - 3.8
28/07:00am 14.6 11.7 11.0 79 1.9 SW 17 22 9 12 1014.7 - 3.8
28/06:30am 13.3 10.3 10.5 83 1.5 WSW 17 20 9 11 1014.5 - 3.8
28/06:00am 12.5 9.8 10.4 87 1.1 SW 15 19 8 10 1014.1 1014.1 3.8
28/05:30am 10.5 7.9 9.4 93 0.5 WNW 13 15 7 8 1013.7 - 3.8
28/05:00am 10.3 7.9 8.7 90 0.8 W 11 11 6 6 1013.6 - 3.8
28/04:30am 10.9 8.8 9.7 92 0.6 WSW 11 15 6 8 1013.4 - 3.8
28/04:00am 10.2 7.8 8.8 91 0.7 W 11 11 6 6 1013.6 - 3.8
28/03:30am 10.8 9.4 9.6 92 0.6 WSW 7 9 4 5 1013.6 - 3.8
28/03:00am 10.7 8.1 9.3 91 0.7 WSW 13 15 7 8 1013.8 1013.8 3.8
28/02:30am 9.3 7.2 8.4 94 0.4 W 9 11 5 6 1013.9 - 3.8
28/02:00am 9.3 7.2 8.2 93 0.5 WNW 9 11 5 6 1013.9 - 3.8
28/01:30am 9.8 9.5 8.6 92 0.6 CALM 0 0 0 0 1014.0 - 3.8
28/01:00am 9.9 7.9 8.7 92 0.6 W 9 11 5 6 1014.0 - 3.8
28/12:30am 10.3 8.4 9.1 92 0.6 W 9 9 5 5 1014.3 - 3.8
28/12:00am 11.2 9.9 9.8 91 0.7 WSW 7 9 4 5 1014.4 1014.4 3.8
 
Date/Time
EST
Temp
°C
App
Temp
°C
Dew
Point
Rel
Hum
%
Delta-T
°C
Wind Press
QNH
hPa
Press
MSL
hPa
Rain
since 9 am
mm
Dir
 
Spd
km/h
Gust
km/h
Spd
kts
Gust
kts
27/11:30pm 11.7 9.7 10.3 91 0.7 WNW 11 15 6 8 1014.5 - 3.8
27/11:00pm 12.1 10.3 10.8 92 0.7 NW 11 13 6 7 1014.5 - 3.8
27/10:30pm 12.3 10.9 10.9 91 0.7 NW 9 11 5 6 1014.6 - 3.8
27/10:00pm 12.6 10.5 11.2 91 0.7 WNW 13 19 7 10 1014.6 - 3.8
27/09:30pm 12.6 10.5 11.2 91 0.7 W 13 15 7 8 1014.6 - 3.8
27/09:00pm 12.8 11.2 11.4 91 0.7 W 11 13 6 7 1014.9 1014.9 3.8
27/08:30pm 12.8 10.8 11.4 91 0.7 WNW 13 15 7 8 1015.1 - 3.8
27/08:00pm 13.2 11.3 10.6 84 1.4 W 11 13 6 7 1015.5 - 3.8
27/07:30pm 14.8 10.1 7.8 63 3.5 S 22 33 12 18 1015.2 - 3.8
27/07:22pm 15.2 9.9 9.8 70 2.8 S 28 33 15 18 1015.2 - 3.6
27/07:00pm 13.7 12.6 12.1 90 0.9 WSW 9 13 5 7 1015.7 - 3.4
27/06:30pm 13.7 12.0 12.4 92 0.7 NW 13 19 7 10 1015.8 - 3.0
27/06:00pm 14.3 12.3 12.7 90 0.9 NW 15 19 8 10 1015.7 1015.7 2.2
27/05:30pm 14.8 12.8 11.4 80 1.8 W 13 19 7 10 1015.0 - 1.2
27/05:00pm 15.6 12.8 11.2 75 2.4 SSW 17 24 9 13 1013.9 - 1.2
27/04:30pm 15.8 13.0 11.2 74 2.5 SSW 17 24 9 13 1013.7 - 1.2
27/04:00pm 16.2 14.2 12.6 79 2.0 SSW 15 20 8 11 1013.3 - 1.2
27/03:30pm 15.4 14.8 13.6 89 1.0 WSW 9 13 5 7 1013.1 - 1.2
27/03:00pm 14.5 12.5 11.6 83 1.6 NW 13 17 7 9 1013.7 1013.7 0.6
27/02:36pm 17.2 12.3 11.2 68 3.2 W 28 50 15 27 1013.2 - 0.0
27/02:30pm 18.6 18.3 12.8 69 3.3 E 6 15 3 8 1013.1 - 0.0

Other Formats:

Comma delimited format used in spreadsheet applications
http://www.bom.gov.au/fwo/IDQ60801/IDQ60801.94569.axf

JavaScript Object Notation format (JSON) in row-major order
http://www.bom.gov.au/fwo/IDQ60801/IDQ60801.94569.json